Carmen, Arizona
Current Conditions -  °F | °C
As of 4:54 AM on Sunday 23 Nov 2014 (Local Time) from KOLS Reporting Station
Clear Clear  
Wind Chill: 41°   Ceiling: Unl
Heat Index: 41°   Visibility: 10mi
Dew Point: 30°   Wind: 3mph
Humidity: 65%   Direction: 150°SSE
Pressure: 30.02"   Gusts: NA
Location:  31.6134°N, 110.959°W
Report Text: KOLS 231154Z AUTO 15003KT 10SM CLR 05/M01 A3002 RMK AO2 SLP134 T00501011 10083 20022 56005
Loading
Personal Weather Stations






























Interactive Weather Map New forecast layout! Learn more

10-Day Weather Forecast

Advertisements
Track Severe Weather on mobile